sensor_id;sensor_type;location;lat;lon;timestamp;temperature;humidity
22491;DHT22;11412;50.802;4.350;2024-03-17T00:01:55;10.00;99.90
22491;DHT22;11412;50.802;4.350;2024-03-17T00:04:21;10.00;99.90
22491;DHT22;11412;50.802;4.350;2024-03-17T00:06:47;9.90;99.90
22491;DHT22;11412;50.802;4.350;2024-03-17T00:09:13;9.80;99.90
22491;DHT22;11412;50.802;4.350;2024-03-17T00:11:38;9.80;99.90
22491;DHT22;11412;50.802;4.350;2024-03-17T00:14:05;9.80;99.90
22491;DHT22;11412;50.802;4.350;2024-03-17T00:16:31;9.90;99.90
22491;DHT22;11412;50.802;4.350;2024-03-17T00:18:56;9.90;99.90
22491;DHT22;11412;50.802;4.350;2024-03-17T00:21:22;9.70;99.90
22491;DHT22;11412;50.802;4.350;2024-03-17T00:23:48;9.80;99.90
22491;DHT22;11412;50.802;4.350;2024-03-17T00:26:17;9.80;99.90
22491;DHT22;11412;50.802;4.350;2024-03-17T00:28:45;9.70;99.90
22491;DHT22;11412;50.802;4.350;2024-03-17T00:31:14;9.80;99.90
22491;DHT22;11412;50.802;4.350;2024-03-17T00:33:41;9.70;99.90
22491;DHT22;11412;50.802;4.350;2024-03-17T00:36:07;9.60;99.90
22491;DHT22;11412;50.802;4.350;2024-03-17T00:38:33;9.60;99.90
22491;DHT22;11412;50.802;4.350;2024-03-17T00:40:59;9.80;99.90
22491;DHT22;11412;50.802;4.350;2024-03-17T00:43:25;10.00;99.90
22491;DHT22;11412;50.802;4.350;2024-03-17T00:45:53;10.00;99.90
22491;DHT22;11412;50.802;4.350;2024-03-17T00:48:19;10.00;99.90
22491;DHT22;11412;50.802;4.350;2024-03-17T00:50:45;10.00;99.90
22491;DHT22;11412;50.802;4.350;2024-03-17T00:53:11;10.10;99.90
22491;DHT22;11412;50.802;4.350;2024-03-17T00:55:37;10.00;99.90
22491;DHT22;11412;50.802;4.350;2024-03-17T00:58:03;9.70;99.90
22491;DHT22;11412;50.802;4.350;2024-03-17T01:00:29;9.60;99.90
22491;DHT22;11412;50.802;4.350;2024-03-17T01:02:55;9.60;99.90
22491;DHT22;11412;50.802;4.350;2024-03-17T01:05:21;9.50;99.90
22491;DHT22;11412;50.802;4.350;2024-03-17T01:07:47;9.70;99.90
22491;DHT22;11412;50.802;4.350;2024-03-17T01:10:14;9.70;99.90
22491;DHT22;11412;50.802;4.350;2024-03-17T01:12:40;9.60;99.90
22491;DHT22;11412;50.802;4.350;2024-03-17T01:15:06;9.70;99.90
22491;DHT22;11412;50.802;4.350;2024-03-17T01:17:32;9.80;99.90
22491;DHT22;11412;50.802;4.350;2024-03-17T01:19:58;9.80;99.90
22491;DHT22;11412;50.802;4.350;2024-03-17T01:22:24;9.70;99.90
22491;DHT22;11412;50.802;4.350;2024-03-17T01:24:49;9.90;99.90
22491;DHT22;11412;50.802;4.350;2024-03-17T01:27:15;10.00;99.90
22491;DHT22;11412;50.802;4.350;2024-03-17T01:29:44;9.90;99.90
22491;DHT22;11412;50.802;4.350;2024-03-17T01:32:10;9.70;99.90
22491;DHT22;11412;50.802;4.350;2024-03-17T01:34:37;9.60;99.90
22491;DHT22;11412;50.802;4.350;2024-03-17T01:37:04;9.50;99.90
22491;DHT22;11412;50.802;4.350;2024-03-17T01:39:30;9.60;99.90
22491;DHT22;11412;50.802;4.350;2024-03-17T01:41:57;9.50;99.90
22491;DHT22;11412;50.802;4.350;2024-03-17T01:44:24;9.60;99.90
22491;DHT22;11412;50.802;4.350;2024-03-17T01:46:51;9.60;99.90
22491;DHT22;11412;50.802;4.350;2024-03-17T01:49:17;9.60;99.90
22491;DHT22;11412;50.802;4.350;2024-03-17T01:51:45;9.70;99.90
22491;DHT22;11412;50.802;4.350;2024-03-17T01:54:11;9.60;99.90
22491;DHT22;11412;50.802;4.350;2024-03-17T01:56:37;9.70;99.90
22491;DHT22;11412;50.802;4.350;2024-03-17T01:59:04;9.80;99.90
22491;DHT22;11412;50.802;4.350;2024-03-17T02:01:31;9.90;99.90
22491;DHT22;11412;50.802;4.350;2024-03-17T02:03:57;9.90;99.90
22491;DHT22;11412;50.802;4.350;2024-03-17T02:06:23;9.60;99.90
22491;DHT22;11412;50.802;4.350;2024-03-17T02:08:54;9.50;99.90
22491;DHT22;11412;50.802;4.350;2024-03-17T02:13:55;9.50;99.90
22491;DHT22;11412;50.802;4.350;2024-03-17T02:16:22;9.60;99.90
22491;DHT22;11412;50.802;4.350;2024-03-17T02:18:48;9.80;99.90
22491;DHT22;11412;50.802;4.350;2024-03-17T02:21:14;9.70;99.90
22491;DHT22;11412;50.802;4.350;2024-03-17T02:23:42;9.80;99.90
22491;DHT22;11412;50.802;4.350;2024-03-17T02:26:08;9.90;99.90
22491;DHT22;11412;50.802;4.350;2024-03-17T02:28:41;10.00;99.90
22491;DHT22;11412;50.802;4.350;2024-03-17T02:31:09;10.10;99.90
22491;DHT22;11412;50.802;4.350;2024-03-17T02:33:36;10.20;99.90
22491;DHT22;11412;50.802;4.350;2024-03-17T02:36:03;10.10;99.90
22491;DHT22;11412;50.802;4.350;2024-03-17T02:38:36;10.00;99.90
22491;DHT22;11412;50.802;4.350;2024-03-17T02:41:21;9.80;99.90
22491;DHT22;11412;50.802;4.350;2024-03-17T02:43:47;9.80;99.90
22491;DHT22;11412;50.802;4.350;2024-03-17T02:46:17;9.70;99.90
22491;DHT22;11412;50.802;4.350;2024-03-17T02:48:49;9.80;99.90
22491;DHT22;11412;50.802;4.350;2024-03-17T02:51:16;10.00;99.90
22491;DHT22;11412;50.802;4.350;2024-03-17T02:53:43;9.90;99.90
22491;DHT22;11412;50.802;4.350;2024-03-17T02:56:11;9.80;99.90
22491;DHT22;11412;50.802;4.350;2024-03-17T02:58:37;9.80;99.90
22491;DHT22;11412;50.802;4.350;2024-03-17T03:01:06;9.80;99.90
22491;DHT22;11412;50.802;4.350;2024-03-17T03:03:33;9.80;99.90
22491;DHT22;11412;50.802;4.350;2024-03-17T03:05:58;9.80;99.90
22491;DHT22;11412;50.802;4.350;2024-03-17T03:08:26;9.70;99.90
22491;DHT22;11412;50.802;4.350;2024-03-17T03:10:53;9.70;99.90
22491;DHT22;11412;50.802;4.350;2024-03-17T03:13:18;9.70;99.90
22491;DHT22;11412;50.802;4.350;2024-03-17T03:15:47;9.70;99.90
22491;DHT22;11412;50.802;4.350;2024-03-17T03:18:15;9.70;99.90
22491;DHT22;11412;50.802;4.350;2024-03-17T03:20:42;10.00;99.90
22491;DHT22;11412;50.802;4.350;2024-03-17T03:23:09;10.00;99.90
22491;DHT22;11412;50.802;4.350;2024-03-17T03:25:35;10.00;99.90
22491;DHT22;11412;50.802;4.350;2024-03-17T03:28:00;9.90;99.90
22491;DHT22;11412;50.802;4.350;2024-03-17T03:30:27;10.00;99.90
22491;DHT22;11412;50.802;4.350;2024-03-17T03:32:53;10.00;99.90
22491;DHT22;11412;50.802;4.350;2024-03-17T03:35:20;10.00;99.90
22491;DHT22;11412;50.802;4.350;2024-03-17T03:37:46;10.00;99.90
22491;DHT22;11412;50.802;4.350;2024-03-17T03:40:12;9.90;99.90
22491;DHT22;11412;50.802;4.350;2024-03-17T03:42:45;9.80;99.90
22491;DHT22;11412;50.802;4.350;2024-03-17T03:45:11;9.80;99.90
22491;DHT22;11412;50.802;4.350;2024-03-17T03:47:40;9.80;99.90
22491;DHT22;11412;50.802;4.350;2024-03-17T03:50:09;9.90;99.90
22491;DHT22;11412;50.802;4.350;2024-03-17T03:52:37;9.90;99.90
22491;DHT22;11412;50.802;4.350;2024-03-17T03:55:03;9.90;99.90
22491;DHT22;11412;50.802;4.350;2024-03-17T03:57:30;9.70;99.90
22491;DHT22;11412;50.802;4.350;2024-03-17T03:59:59;9.60;99.90
22491;DHT22;11412;50.802;4.350;2024-03-17T04:02:24;9.60;99.90
22491;DHT22;11412;50.802;4.350;2024-03-17T04:04:56;9.50;99.90
22491;DHT22;11412;50.802;4.350;2024-03-17T04:07:22;9.50;99.90
22491;DHT22;11412;50.802;4.350;2024-03-17T04:09:48;9.60;99.90
22491;DHT22;11412;50.802;4.350;2024-03-17T04:12:14;9.60;99.90
22491;DHT22;11412;50.802;4.350;2024-03-17T04:14:39;9.50;99.90
22491;DHT22;11412;50.802;4.350;2024-03-17T04:17:05;9.40;99.90
22491;DHT22;11412;50.802;4.350;2024-03-17T04:19:32;9.50;99.90
22491;DHT22;11412;50.802;4.350;2024-03-17T04:21:58;9.40;99.90
22491;DHT22;11412;50.802;4.350;2024-03-17T04:24:23;9.40;99.90
22491;DHT22;11412;50.802;4.350;2024-03-17T04:26:49;9.40;99.90
22491;DHT22;11412;50.802;4.350;2024-03-17T04:29:15;9.40;99.90
22491;DHT22;11412;50.802;4.350;2024-03-17T04:31:40;9.30;99.90
22491;DHT22;11412;50.802;4.350;2024-03-17T04:34:07;9.40;99.90
22491;DHT22;11412;50.802;4.350;2024-03-17T04:36:33;9.40;99.90
22491;DHT22;11412;50.802;4.350;2024-03-17T04:38:58;9.40;99.90
22491;DHT22;11412;50.802;4.350;2024-03-17T04:41:24;9.30;99.90
22491;DHT22;11412;50.802;4.350;2024-03-17T04:43:50;9.40;99.90
22491;DHT22;11412;50.802;4.350;2024-03-17T04:46:15;9.40;99.90
22491;DHT22;11412;50.802;4.350;2024-03-17T04:48:41;9.30;99.90
22491;DHT22;11412;50.802;4.350;2024-03-17T04:51:07;9.40;99.90
22491;DHT22;11412;50.802;4.350;2024-03-17T04:53:33;9.50;99.90
22491;DHT22;11412;50.802;4.350;2024-03-17T04:56:02;9.50;99.90
22491;DHT22;11412;50.802;4.350;2024-03-17T04:58:33;9.50;99.90
22491;DHT22;11412;50.802;4.350;2024-03-17T05:01:04;9.60;99.90
22491;DHT22;11412;50.802;4.350;2024-03-17T05:03:35;9.50;99.90
22491;DHT22;11412;50.802;4.350;2024-03-17T05:06:04;9.60;99.90
22491;DHT22;11412;50.802;4.350;2024-03-17T05:08:31;9.70;99.90
22491;DHT22;11412;50.802;4.350;2024-03-17T05:10:59;9.60;99.90
22491;DHT22;11412;50.802;4.350;2024-03-17T05:13:27;9.70;99.90
22491;DHT22;11412;50.802;4.350;2024-03-17T05:15:54;9.60;99.90
22491;DHT22;11412;50.802;4.350;2024-03-17T05:18:20;9.60;99.90
22491;DHT22;11412;50.802;4.350;2024-03-17T05:21:00;9.60;99.90
22491;DHT22;11412;50.802;4.350;2024-03-17T05:23:31;9.70;99.90
22491;DHT22;11412;50.802;4.350;2024-03-17T05:25:58;9.70;99.90
22491;DHT22;11412;50.802;4.350;2024-03-17T05:28:25;9.70;99.90
22491;DHT22;11412;50.802;4.350;2024-03-17T05:30:51;9.70;99.90
22491;DHT22;11412;50.802;4.350;2024-03-17T05:33:18;9.80;99.90
22491;DHT22;11412;50.802;4.350;2024-03-17T05:35:51;9.80;99.90
22491;DHT22;11412;50.802;4.350;2024-03-17T05:38:19;9.70;99.90
22491;DHT22;11412;50.802;4.350;2024-03-17T05:43:22;9.80;99.90
22491;DHT22;11412;50.802;4.350;2024-03-17T05:45:51;9.90;99.90
22491;DHT22;11412;50.802;4.350;2024-03-17T05:48:17;9.90;99.90
22491;DHT22;11412;50.802;4.350;2024-03-17T05:50:42;9.80;99.90
22491;DHT22;11412;50.802;4.350;2024-03-17T05:53:08;9.80;99.90
22491;DHT22;11412;50.802;4.350;2024-03-17T05:55:37;9.80;99.90
22491;DHT22;11412;50.802;4.350;2024-03-17T05:58:06;9.90;99.90
22491;DHT22;11412;50.802;4.350;2024-03-17T06:00:35;9.90;99.90
22491;DHT22;11412;50.802;4.350;2024-03-17T06:03:00;10.00;99.90
22491;DHT22;11412;50.802;4.350;2024-03-17T06:05:27;10.10;99.90
22491;DHT22;11412;50.802;4.350;2024-03-17T06:07:53;10.20;99.90
22491;DHT22;11412;50.802;4.350;2024-03-17T06:10:19;10.00;99.90
22491;DHT22;11412;50.802;4.350;2024-03-17T06:12:49;10.00;99.90
22491;DHT22;11412;50.802;4.350;2024-03-17T06:15:15;10.20;99.90
22491;DHT22;11412;50.802;4.350;2024-03-17T06:17:42;10.30;99.90
22491;DHT22;11412;50.802;4.350;2024-03-17T06:20:08;10.20;99.90
22491;DHT22;11412;50.802;4.350;2024-03-17T06:22:37;10.20;99.90
22491;DHT22;11412;50.802;4.350;2024-03-17T06:25:02;10.30;99.90
22491;DHT22;11412;50.802;4.350;2024-03-17T06:27:29;10.50;99.90
22491;DHT22;11412;50.802;4.350;2024-03-17T06:29:56;10.40;99.90
22491;DHT22;11412;50.802;4.350;2024-03-17T06:32:22;10.30;99.90
22491;DHT22;11412;50.802;4.350;2024-03-17T06:34:48;10.40;99.90
22491;DHT22;11412;50.802;4.350;2024-03-17T06:37:13;10.30;99.90
22491;DHT22;11412;50.802;4.350;2024-03-17T06:39:39;10.40;99.90
22491;DHT22;11412;50.802;4.350;2024-03-17T06:42:05;10.40;99.90
22491;DHT22;11412;50.802;4.350;2024-03-17T06:44:31;10.20;99.90
22491;DHT22;11412;50.802;4.350;2024-03-17T06:46:59;10.30;99.90
22491;DHT22;11412;50.802;4.350;2024-03-17T06:49:25;10.60;99.90
22491;DHT22;11412;50.802;4.350;2024-03-17T06:51:51;10.50;99.90
22491;DHT22;11412;50.802;4.350;2024-03-17T06:54:16;10.40;99.90
22491;DHT22;11412;50.802;4.350;2024-03-17T06:56:43;10.50;99.90
22491;DHT22;11412;50.802;4.350;2024-03-17T06:59:10;10.30;99.90
22491;DHT22;11412;50.802;4.350;2024-03-17T07:01:35;10.30;99.90
22491;DHT22;11412;50.802;4.350;2024-03-17T07:04:01;10.40;99.90
22491;DHT22;11412;50.802;4.350;2024-03-17T07:06:27;10.40;99.90
22491;DHT22;11412;50.802;4.350;2024-03-17T07:08:52;10.60;99.90
22491;DHT22;11412;50.802;4.350;2024-03-17T07:11:18;10.50;99.90
22491;DHT22;11412;50.802;4.350;2024-03-17T07:13:44;10.60;99.90
22491;DHT22;11412;50.802;4.350;2024-03-17T07:16:09;10.50;99.90
22491;DHT22;11412;50.802;4.350;2024-03-17T07:18:35;10.70;99.90
22491;DHT22;11412;50.802;4.350;2024-03-17T07:21:03;10.80;99.90
22491;DHT22;11412;50.802;4.350;2024-03-17T07:23:30;10.80;99.90
22491;DHT22;11412;50.802;4.350;2024-03-17T07:25:59;10.90;99.90
22491;DHT22;11412;50.802;4.350;2024-03-17T07:28:25;11.10;99.90
22491;DHT22;11412;50.802;4.350;2024-03-17T07:30:54;11.10;99.90
22491;DHT22;11412;50.802;4.350;2024-03-17T07:33:20;10.80;99.90
22491;DHT22;11412;50.802;4.350;2024-03-17T07:35:54;10.70;99.90
22491;DHT22;11412;50.802;4.350;2024-03-17T07:38:24;10.90;99.90
22491;DHT22;11412;50.802;4.350;2024-03-17T07:41:06;11.00;99.90
22491;DHT22;11412;50.802;4.350;2024-03-17T07:43:34;11.00;99.90
22491;DHT22;11412;50.802;4.350;2024-03-17T07:46:07;11.30;99.90
22491;DHT22;11412;50.802;4.350;2024-03-17T07:48:35;11.20;99.90
22491;DHT22;11412;50.802;4.350;2024-03-17T07:51:12;11.10;99.90
22491;DHT22;11412;50.802;4.350;2024-03-17T07:53:39;11.30;99.90
22491;DHT22;11412;50.802;4.350;2024-03-17T07:56:09;11.20;99.90
22491;DHT22;11412;50.802;4.350;2024-03-17T07:58:37;11.60;99.90
22491;DHT22;11412;50.802;4.350;2024-03-17T08:01:13;11.70;99.90
22491;DHT22;11412;50.802;4.350;2024-03-17T08:03:40;11.80;99.90
22491;DHT22;11412;50.802;4.350;2024-03-17T08:06:07;11.80;99.90
22491;DHT22;11412;50.802;4.350;2024-03-17T08:08:34;12.00;99.90
22491;DHT22;11412;50.802;4.350;2024-03-17T08:11:00;12.30;99.90
22491;DHT22;11412;50.802;4.350;2024-03-17T08:13:29;12.20;99.90
22491;DHT22;11412;50.802;4.350;2024-03-17T08:16:07;12.30;99.90
22491;DHT22;11412;50.802;4.350;2024-03-17T08:18:34;12.00;99.90
22491;DHT22;11412;50.802;4.350;2024-03-17T08:21:01;11.90;99.90
22491;DHT22;11412;50.802;4.350;2024-03-17T08:23:27;12.20;99.90
22491;DHT22;11412;50.802;4.350;2024-03-17T08:25:53;12.10;99.90
22491;DHT22;11412;50.802;4.350;2024-03-17T08:28:20;12.00;99.90
22491;DHT22;11412;50.802;4.350;2024-03-17T08:30:56;12.10;99.90
22491;DHT22;11412;50.802;4.350;2024-03-17T08:33:22;12.00;99.90
22491;DHT22;11412;50.802;4.350;2024-03-17T08:36:03;12.00;99.90
22491;DHT22;11412;50.802;4.350;2024-03-17T08:38:30;12.10;99.90
22491;DHT22;11412;50.802;4.350;2024-03-17T08:40:57;12.60;99.90
22491;DHT22;11412;50.802;4.350;2024-03-17T08:43:24;12.60;99.90
22491;DHT22;11412;50.802;4.350;2024-03-17T08:46:03;12.70;99.90
22491;DHT22;11412;50.802;4.350;2024-03-17T08:48:32;12.70;99.90
22491;DHT22;11412;50.802;4.350;2024-03-17T08:50:59;12.50;99.90
22491;DHT22;11412;50.802;4.350;2024-03-17T08:53:25;12.60;99.90
22491;DHT22;11412;50.802;4.350;2024-03-17T08:55:52;12.80;99.90
22491;DHT22;11412;50.802;4.350;2024-03-17T08:58:18;12.90;99.90
22491;DHT22;11412;50.802;4.350;2024-03-17T09:00:44;13.00;99.90
22491;DHT22;11412;50.802;4.350;2024-03-17T09:03:10;13.10;99.90
22491;DHT22;11412;50.802;4.350;2024-03-17T09:05:44;13.10;99.90
22491;DHT22;11412;50.802;4.350;2024-03-17T09:08:20;13.10;99.90
22491;DHT22;11412;50.802;4.350;2024-03-17T09:10:48;12.80;99.90
22491;DHT22;11412;50.802;4.350;2024-03-17T09:13:16;12.80;99.90
22491;DHT22;11412;50.802;4.350;2024-03-17T09:15:55;13.10;99.90
22491;DHT22;11412;50.802;4.350;2024-03-17T09:18:28;13.20;99.90
22491;DHT22;11412;50.802;4.350;2024-03-17T09:21:01;13.40;99.90
22491;DHT22;11412;50.802;4.350;2024-03-17T09:23:28;13.50;99.90
22491;DHT22;11412;50.802;4.350;2024-03-17T09:28:28;13.20;99.90
22491;DHT22;11412;50.802;4.350;2024-03-17T09:30:54;13.10;99.90
22491;DHT22;11412;50.802;4.350;2024-03-17T09:33:21;12.90;99.90
22491;DHT22;11412;50.802;4.350;2024-03-17T09:36:07;13.10;99.90
22491;DHT22;11412;50.802;4.350;2024-03-17T09:38:33;13.10;99.90
22491;DHT22;11412;50.802;4.350;2024-03-17T09:41:00;13.20;99.90
22491;DHT22;11412;50.802;4.350;2024-03-17T09:43:31;13.00;99.90
22491;DHT22;11412;50.802;4.350;2024-03-17T09:45:57;12.90;99.90
22491;DHT22;11412;50.802;4.350;2024-03-17T09:48:27;12.70;99.90
22491;DHT22;11412;50.802;4.350;2024-03-17T09:51:02;12.80;99.90
22491;DHT22;11412;50.802;4.350;2024-03-17T09:53:32;13.00;99.90
22491;DHT22;11412;50.802;4.350;2024-03-17T09:56:00;13.20;99.90
22491;DHT22;11412;50.802;4.350;2024-03-17T09:58:26;12.80;99.90
22491;DHT22;11412;50.802;4.350;2024-03-17T10:00:52;12.80;99.90
22491;DHT22;11412;50.802;4.350;2024-03-17T10:03:50;12.90;99.90
22491;DHT22;11412;50.802;4.350;2024-03-17T10:06:25;12.60;99.90
22491;DHT22;11412;50.802;4.350;2024-03-17T10:08:59;13.00;99.90
22491;DHT22;11412;50.802;4.350;2024-03-17T10:11:35;13.00;99.90
22491;DHT22;11412;50.802;4.350;2024-03-17T10:14:06;13.10;99.90
22491;DHT22;11412;50.802;4.350;2024-03-17T10:16:34;13.20;99.90
22491;DHT22;11412;50.802;4.350;2024-03-17T10:19:11;13.10;99.90
22491;DHT22;11412;50.802;4.350;2024-03-17T10:21:46;13.20;99.90
22491;DHT22;11412;50.802;4.350;2024-03-17T10:24:24;13.20;99.90
22491;DHT22;11412;50.802;4.350;2024-03-17T10:26:54;13.30;99.90
22491;DHT22;11412;50.802;4.350;2024-03-17T10:29:24;13.20;99.90
22491;DHT22;11412;50.802;4.350;2024-03-17T10:31:54;13.40;99.90
22491;DHT22;11412;50.802;4.350;2024-03-17T10:34:21;13.80;99.90
22491;DHT22;11412;50.802;4.350;2024-03-17T10:36:51;14.00;99.90
22491;DHT22;11412;50.802;4.350;2024-03-17T10:39:26;13.90;99.90
22491;DHT22;11412;50.802;4.350;2024-03-17T10:41:57;13.70;99.90
22491;DHT22;11412;50.802;4.350;2024-03-17T10:44:26;13.40;99.90
22491;DHT22;11412;50.802;4.350;2024-03-17T10:46:54;13.40;99.90
22491;DHT22;11412;50.802;4.350;2024-03-17T10:49:21;13.40;99.90
22491;DHT22;11412;50.802;4.350;2024-03-17T10:51:51;13.50;99.90
22491;DHT22;11412;50.802;4.350;2024-03-17T10:54:24;13.80;99.90
22491;DHT22;11412;50.802;4.350;2024-03-17T10:59:41;14.40;99.90
22491;DHT22;11412;50.802;4.350;2024-03-17T11:02:21;14.50;99.90
22491;DHT22;11412;50.802;4.350;2024-03-17T11:04:56;14.40;99.90
22491;DHT22;11412;50.802;4.350;2024-03-17T11:07:23;14.60;99.90
22491;DHT22;11412;50.802;4.350;2024-03-17T11:09:51;14.50;99.90
22491;DHT22;11412;50.802;4.350;2024-03-17T11:20:37;15.70;99.90
22491;DHT22;11412;50.802;4.350;2024-03-17T11:23:05;15.90;99.90
22491;DHT22;11412;50.802;4.350;2024-03-17T11:28:08;15.90;99.90
22491;DHT22;11412;50.802;4.350;2024-03-17T11:33:46;16.20;99.90
22491;DHT22;11412;50.802;4.350;2024-03-17T11:38:54;16.50;99.90
22491;DHT22;11412;50.802;4.350;2024-03-17T11:41:39;16.20;99.90
22491;DHT22;11412;50.802;4.350;2024-03-17T11:46:53;16.40;99.90
22491;DHT22;11412;50.802;4.350;2024-03-17T11:51:48;17.20;99.90
22491;DHT22;11412;50.802;4.350;2024-03-17T11:54:19;17.60;99.90
22491;DHT22;11412;50.802;4.350;2024-03-17T11:56:47;17.60;99.90
22491;DHT22;11412;50.802;4.350;2024-03-17T11:59:14;17.10;99.90
22491;DHT22;11412;50.802;4.350;2024-03-17T12:01:46;16.90;99.90
22491;DHT22;11412;50.802;4.350;2024-03-17T12:04:21;16.60;99.90
22491;DHT22;11412;50.802;4.350;2024-03-17T12:06:51;16.60;99.90
22491;DHT22;11412;50.802;4.350;2024-03-17T12:09:22;16.70;99.90
22491;DHT22;11412;50.802;4.350;2024-03-17T12:12:09;16.70;99.90
22491;DHT22;11412;50.802;4.350;2024-03-17T12:14:37;16.90;99.90
22491;DHT22;11412;50.802;4.350;2024-03-17T12:17:07;17.30;99.90
22491;DHT22;11412;50.802;4.350;2024-03-17T12:19:34;17.50;99.90
22491;DHT22;11412;50.802;4.350;2024-03-17T12:22:01;17.50;99.90
22491;DHT22;11412;50.802;4.350;2024-03-17T12:24:31;17.80;99.90
22491;DHT22;11412;50.802;4.350;2024-03-17T12:26:58;18.10;99.90
22491;DHT22;11412;50.802;4.350;2024-03-17T12:29:35;18.40;99.90
22491;DHT22;11412;50.802;4.350;2024-03-17T12:32:05;18.40;99.90
22491;DHT22;11412;50.802;4.350;2024-03-17T12:34:34;18.40;99.90
22491;DHT22;11412;50.802;4.350;2024-03-17T12:37:00;18.10;99.90
22491;DHT22;11412;50.802;4.350;2024-03-17T12:39:32;17.80;99.90
22491;DHT22;11412;50.802;4.350;2024-03-17T12:44:27;17.60;99.90
22491;DHT22;11412;50.802;4.350;2024-03-17T12:46:57;17.50;99.90
22491;DHT22;11412;50.802;4.350;2024-03-17T12:49:28;17.30;99.90
22491;DHT22;11412;50.802;4.350;2024-03-17T12:51:54;17.30;99.90
22491;DHT22;11412;50.802;4.350;2024-03-17T12:54:25;17.30;99.90
22491;DHT22;11412;50.802;4.350;2024-03-17T12:57:02;17.20;99.90
22491;DHT22;11412;50.802;4.350;2024-03-17T12:59:47;17.10;99.90
22491;DHT22;11412;50.802;4.350;2024-03-17T13:02:21;16.90;99.90
22491;DHT22;11412;50.802;4.350;2024-03-17T13:05:15;16.70;99.90
22491;DHT22;11412;50.802;4.350;2024-03-17T13:07:44;16.90;99.90
22491;DHT22;11412;50.802;4.350;2024-03-17T13:10:13;16.70;99.90
22491;DHT22;11412;50.802;4.350;2024-03-17T13:12:40;16.80;99.90
22491;DHT22;11412;50.802;4.350;2024-03-17T13:15:10;16.80;99.90
22491;DHT22;11412;50.802;4.350;2024-03-17T13:17:37;16.50;99.90
22491;DHT22;11412;50.802;4.350;2024-03-17T13:20:03;16.40;99.90
22491;DHT22;11412;50.802;4.350;2024-03-17T13:22:29;16.30;99.90
22491;DHT22;11412;50.802;4.350;2024-03-17T13:24:55;16.30;99.90
22491;DHT22;11412;50.802;4.350;2024-03-17T13:27:22;16.50;99.90
22491;DHT22;11412;50.802;4.350;2024-03-17T13:29:48;16.30;99.90
22491;DHT22;11412;50.802;4.350;2024-03-17T13:32:14;16.10;99.90
22491;DHT22;11412;50.802;4.350;2024-03-17T13:34:41;15.90;99.90
22491;DHT22;11412;50.802;4.350;2024-03-17T13:37:07;15.90;99.90
22491;DHT22;11412;50.802;4.350;2024-03-17T13:39:33;16.10;99.90
22491;DHT22;11412;50.802;4.350;2024-03-17T13:41:59;16.00;99.90
22491;DHT22;11412;50.802;4.350;2024-03-17T13:44:29;16.30;99.90
22491;DHT22;11412;50.802;4.350;2024-03-17T13:46:57;16.50;99.90
22491;DHT22;11412;50.802;4.350;2024-03-17T13:49:23;16.60;99.90
22491;DHT22;11412;50.802;4.350;2024-03-17T13:51:48;16.50;99.90
22491;DHT22;11412;50.802;4.350;2024-03-17T13:54:14;16.30;99.90
22491;DHT22;11412;50.802;4.350;2024-03-17T13:56:40;16.40;99.90
22491;DHT22;11412;50.802;4.350;2024-03-17T13:59:07;16.50;99.90
22491;DHT22;11412;50.802;4.350;2024-03-17T14:01:33;16.20;99.90
22491;DHT22;11412;50.802;4.350;2024-03-17T14:03:59;15.80;99.90
22491;DHT22;11412;50.802;4.350;2024-03-17T14:06:25;15.90;99.90
22491;DHT22;11412;50.802;4.350;2024-03-17T14:08:51;16.00;99.90
22491;DHT22;11412;50.802;4.350;2024-03-17T14:11:16;16.10;99.90
22491;DHT22;11412;50.802;4.350;2024-03-17T14:13:42;16.20;99.90
22491;DHT22;11412;50.802;4.350;2024-03-17T14:16:08;16.20;99.90
22491;DHT22;11412;50.802;4.350;2024-03-17T14:18:33;15.90;99.90
22491;DHT22;11412;50.802;4.350;2024-03-17T14:20:59;15.80;99.90
22491;DHT22;11412;50.802;4.350;2024-03-17T14:23:25;15.60;99.90
22491;DHT22;11412;50.802;4.350;2024-03-17T14:25:51;15.80;99.90
22491;DHT22;11412;50.802;4.350;2024-03-17T14:28:17;15.70;99.90
22491;DHT22;11412;50.802;4.350;2024-03-17T14:30:44;15.70;99.90
22491;DHT22;11412;50.802;4.350;2024-03-17T14:33:10;15.70;99.90
22491;DHT22;11412;50.802;4.350;2024-03-17T14:35:36;15.40;99.90
22491;DHT22;11412;50.802;4.350;2024-03-17T14:38:03;15.20;99.90
22491;DHT22;11412;50.802;4.350;2024-03-17T14:40:30;15.20;99.90
22491;DHT22;11412;50.802;4.350;2024-03-17T14:42:55;15.60;99.90
22491;DHT22;11412;50.802;4.350;2024-03-17T14:45:22;15.50;99.90
22491;DHT22;11412;50.802;4.350;2024-03-17T14:47:50;15.60;99.90
22491;DHT22;11412;50.802;4.350;2024-03-17T14:50:17;15.70;99.90
22491;DHT22;11412;50.802;4.350;2024-03-17T14:52:44;15.70;99.90
22491;DHT22;11412;50.802;4.350;2024-03-17T14:55:10;15.90;99.90
22491;DHT22;11412;50.802;4.350;2024-03-17T14:57:37;16.00;99.90
22491;DHT22;11412;50.802;4.350;2024-03-17T15:00:08;15.90;99.90
22491;DHT22;11412;50.802;4.350;2024-03-17T15:02:44;15.40;99.90
22491;DHT22;11412;50.802;4.350;2024-03-17T15:05:14;15.50;99.90
22491;DHT22;11412;50.802;4.350;2024-03-17T15:07:40;15.40;99.90
22491;DHT22;11412;50.802;4.350;2024-03-17T15:10:07;15.20;99.90
22491;DHT22;11412;50.802;4.350;2024-03-17T15:12:33;15.30;99.90
22491;DHT22;11412;50.802;4.350;2024-03-17T15:14:58;15.30;99.90
22491;DHT22;11412;50.802;4.350;2024-03-17T15:17:25;15.00;99.90
22491;DHT22;11412;50.802;4.350;2024-03-17T15:19:53;14.90;99.90
22491;DHT22;11412;50.802;4.350;2024-03-17T15:22:19;14.90;99.90
22491;DHT22;11412;50.802;4.350;2024-03-17T15:24:47;14.90;99.90
22491;DHT22;11412;50.802;4.350;2024-03-17T15:27:14;14.90;99.90
22491;DHT22;11412;50.802;4.350;2024-03-17T15:29:40;15.00;99.90
22491;DHT22;11412;50.802;4.350;2024-03-17T15:32:07;15.00;99.90
22491;DHT22;11412;50.802;4.350;2024-03-17T15:34:35;15.00;99.90
22491;DHT22;11412;50.802;4.350;2024-03-17T15:37:03;15.00;99.90
22491;DHT22;11412;50.802;4.350;2024-03-17T15:39:29;15.20;99.90
22491;DHT22;11412;50.802;4.350;2024-03-17T15:41:55;15.40;99.90
22491;DHT22;11412;50.802;4.350;2024-03-17T15:44:20;15.10;99.90
22491;DHT22;11412;50.802;4.350;2024-03-17T15:46:49;15.00;99.90
22491;DHT22;11412;50.802;4.350;2024-03-17T15:49:15;14.80;99.90
22491;DHT22;11412;50.802;4.350;2024-03-17T15:51:40;14.70;99.90
22491;DHT22;11412;50.802;4.350;2024-03-17T15:54:09;14.30;99.90
22491;DHT22;11412;50.802;4.350;2024-03-17T15:56:34;14.40;99.90
22491;DHT22;11412;50.802;4.350;2024-03-17T15:59:01;14.60;99.90
22491;DHT22;11412;50.802;4.350;2024-03-17T16:01:27;14.60;99.90
22491;DHT22;11412;50.802;4.350;2024-03-17T16:03:53;14.60;99.90
22491;DHT22;11412;50.802;4.350;2024-03-17T16:06:20;14.50;99.90
22491;DHT22;11412;50.802;4.350;2024-03-17T16:08:49;14.30;99.90
22491;DHT22;11412;50.802;4.350;2024-03-17T16:11:19;14.30;99.90
22491;DHT22;11412;50.802;4.350;2024-03-17T16:13:54;14.50;99.90
22491;DHT22;11412;50.802;4.350;2024-03-17T16:16:21;14.70;99.90